Latest Weather Observations for Hindmarsh Island

IDS60901

Issued at 9:41 pm CST Monday 27 April 2015 (issued every 10 minutes, with the page automatically refreshed every 10 minutes)

About weather observations | Map of Adelaide area stations | Latest observations for Adelaide area | Other Formats
Station Details ID: 023894 Name: HINDMARSH ISLAND AWS Lat: -35.52 Lon: 138.82 Height: 11.0 m
Data from the previous 72 hours. | See also: Recent months at Hindmarsh Island
Date/Time
CST
Tmp

°C
App
Tmp
°C
Dew
Point
°C
Rel
Hum
%
Delta-T

°C
Wind Press
QNH
hPa
Press
MSL
hPa
Rain
since
9 am
mm
Dir
 
Spd
km/h
Gust
km/h
Spd
kts
Gust
kts
27/09:30pm 14.2 9.9 7.9 66 3.1 S 20 28 11 15 1028.4 - 0.0
27/09:00pm 13.5 10.4 8.8 73 2.3 S 15 17 8 9 1028.5 1028.4 0.0
27/08:30pm 13.0 8.3 9.1 77 2.0 S 24 37 13 20 1028.5 - 0.0
27/08:16pm 13.4 7.6 8.0 70 2.7 SSW 28 50 15 27 1028.1 - 0.0
27/08:00pm 13.8 9.9 7.1 64 3.3 SSW 17 22 9 12 1028.3 - 0.0
27/07:30pm 13.7 9.0 9.4 75 2.2 SSW 24 33 13 18 1028.2 - 0.0
27/07:00pm 14.2 9.6 8.2 67 3.0 SSW 22 26 12 14 1028.0 - 0.0
27/06:30pm 14.1 9.5 8.3 68 2.9 S 22 26 12 14 1027.8 - 0.0
27/06:00pm 13.7 8.3 7.9 68 2.8 S 26 32 14 17 1027.6 1027.5 0.0
27/05:30pm 14.4 9.6 9.0 70 2.7 S 24 30 13 16 1027.3 - 0.0
27/05:00pm 14.9 9.2 6.5 57 4.1 SSW 26 30 14 16 1027.2 - 0.0
27/04:30pm 15.0 9.1 5.8 54 4.4 SSW 26 32 14 17 1027.0 - 0.0
27/04:00pm 15.4 9.3 6.7 56 4.2 SSW 28 35 15 19 1027.1 - 0.0
27/03:30pm 15.4 10.0 7.9 61 3.8 SSW 26 32 14 17 1027.0 - 0.0
27/03:00pm 15.7 11.0 9.1 65 3.4 SSW 24 30 13 16 1027.0 1026.8 0.0
27/02:30pm 15.4 9.1 8.9 65 3.3 S 32 37 17 20 1026.8 - 0.0
27/02:25pm 15.4 9.9 9.3 67 3.1 S 28 41 15 22 1026.7 - 0.0
27/02:00pm 15.6 12.1 8.8 64 3.5 S 17 22 9 12 1026.7 - 0.0
27/01:30pm 15.8 11.6 8.3 61 3.8 S 20 24 11 13 1026.7 - 0.0
27/01:00pm 15.4 10.7 7.9 61 3.8 S 22 26 12 14 1026.8 - 0.0
27/12:30pm 15.4 10.3 9.1 66 3.2 S 26 37 14 20 1027.0 - 0.0
27/12:00pm 16.4 11.0 6.5 52 4.8 SSW 24 28 13 15 1027.3 1027.2 0.0
27/11:30am 17.4 12.3 7.5 52 5.0 SSW 24 28 13 15 1027.5 - 0.0
27/11:00am 16.7 11.2 7.4 54 4.6 S 26 30 14 16 1027.8 - 0.0
27/10:30am 16.6 10.8 7.8 56 4.4 SSW 28 33 15 18 1027.8 - 0.0
27/10:00am 15.7 9.1 7.7 59 4.0 SSW 32 39 17 21 1027.5 - 0.0
27/09:30am 16.3 10.2 8.3 59 4.1 SSW 30 35 16 19 1027.4 - 0.0
27/09:00am 14.8 9.2 7.1 60 3.7 SSW 26 33 14 18 1027.4 1027.2 0.0
27/08:30am 14.9 11.5 9.3 69 2.9 WSW 17 20 9 11 1027.4 - 0.0
27/08:00am 13.6 11.3 9.1 74 2.3 W 11 20 6 11 1027.2 - 0.0
27/07:30am 13.8 9.4 8.8 72 2.5 SW 22 30 12 16 1026.8 - 0.0
27/07:00am 13.7 9.4 7.7 67 3.0 SSW 20 24 11 13 1026.6 - 0.0
27/06:30am 14.0 8.9 7.5 65 3.2 SSW 24 33 13 18 1026.4 - 0.0
27/06:00am 13.7 6.5 7.5 66 3.0 SSW 35 43 19 23 1026.2 1026.0 0.0
27/05:30am 14.1 9.7 7.2 63 3.4 SW 20 30 11 16 1026.0 - 0.0
27/05:00am 14.1 9.7 6.5 60 3.7 SSW 19 24 10 13 1026.0 - 0.0
27/04:30am 14.2 8.8 6.3 59 3.8 S 24 30 13 16 1025.8 - 0.0
27/04:00am 14.2 8.5 6.6 60 3.7 S 26 33 14 18 1025.7 - 0.0
27/03:30am 14.0 8.4 7.1 63 3.4 SSW 26 32 14 17 1025.7 - 0.0
27/03:00am 13.9 9.8 7.7 66 3.0 SSW 19 26 10 14 1025.9 1025.8 0.0
27/02:30am 13.6 7.9 6.9 64 3.2 SSW 26 35 14 19 1026.1 - 0.0
27/02:00am 14.1 9.5 6.5 60 3.7 SW 20 26 11 14 1026.0 - 0.0
27/01:30am 14.1 9.7 4.9 54 4.3 SW 17 20 9 11 1026.0 - 0.0
27/01:00am 14.3 7.4 4.6 52 4.5 SSW 30 35 16 19 1026.1 - 0.0
27/12:30am 14.0 9.0 6.6 61 3.6 SW 22 30 12 16 1026.1 - 0.0
27/12:00am 14.2 8.8 6.3 59 3.8 SSW 24 32 13 17 1026.1 1026.1 0.0
 
Date/Time
CST
Tmp

°C
App
Tmp
°C
Dew
Point
°C
Rel
Hum
%
Delta-T

°C
Wind Press
QNH
hPa
Press
MSL
hPa
Rain
since
9 am
mm
Dir
 
Spd
km/h
Gust
km/h
Spd
kts
Gust
kts
26/11:30pm 14.2 8.3 5.8 57 4.0 SW 26 32 14 17 1026.3 - 0.0
26/11:00pm 14.2 8.1 6.6 60 3.7 SSW 28 35 15 19 1026.2 - 0.0
26/10:30pm 13.8 9.6 7.6 66 3.0 S 19 26 10 14 1026.5 - 0.0
26/10:00pm 14.2 8.9 6.6 60 3.7 SSW 24 28 13 15 1026.4 - 0.0
26/09:30pm 14.4 8.7 6.5 59 3.8 SSW 26 35 14 19 1026.2 - 0.0
26/09:00pm 14.3 8.4 5.9 57 4.0 SSW 26 35 14 19 1026.3 1026.2 0.0
26/08:30pm 14.3 8.0 5.9 57 4.0 SW 28 35 15 19 1026.1 - 0.0
26/08:00pm 14.3 9.7 6.6 60 3.7 SW 20 26 11 14 1026.0 - 0.0
26/07:30pm 14.2 9.1 6.1 58 3.9 SW 22 30 12 16 1025.9 - 0.0
26/07:00pm 14.3 9.2 5.9 57 4.0 SW 22 32 12 17 1025.7 - 0.0
26/06:30pm 14.4 8.2 6.0 57 4.0 SSW 28 33 15 18 1025.5 - 0.0
26/06:00pm 14.4 9.0 6.5 59 3.8 SSW 24 32 13 17 1025.1 1025.0 0.0
26/05:30pm 14.5 9.1 8.2 66 3.2 SSW 26 33 14 18 1024.8 - 0.0
26/05:00pm 14.6 8.8 6.2 57 4.0 S 26 32 14 17 1024.6 - 0.0
26/04:30pm 14.7 7.5 6.0 56 4.2 S 33 41 18 22 1024.6 - 0.0
26/04:00pm 14.7 8.5 6.3 57 4.0 SSW 28 35 15 19 1024.6 - 0.0
26/03:30pm 14.5 8.2 7.5 63 3.5 SSW 30 35 16 19 1024.5 - 0.0
26/03:00pm 15.2 9.1 8.4 64 3.4 SSW 30 35 16 19 1024.3 1024.2 0.0
26/02:30pm 15.1 9.8 8.6 65 3.3 SW 26 30 14 16 1024.4 - 0.0
26/02:00pm 15.1 9.1 8.6 65 3.3 SSW 30 35 16 19 1024.3 - 0.0
26/01:30pm 15.6 8.7 7.4 58 4.1 SSW 33 41 18 22 1024.1 - 0.0
26/01:00pm 15.8 9.2 7.6 58 4.1 SSW 32 35 17 19 1024.2 - 0.0
26/12:30pm 15.2 8.5 8.2 63 3.5 S 33 41 18 22 1024.3 - 0.0
26/12:00pm 15.2 8.1 8.2 63 3.5 S 35 41 19 22 1024.4 1024.2 0.0
26/11:30am 15.7 9.6 8.2 61 3.8 S 30 35 16 19 1024.5 - 0.0
26/11:00am 15.4 9.2 9.5 68 3.0 S 32 37 17 20 1024.4 - 0.0
26/10:30am 13.5 11.0 10.9 84 1.4 WSW 15 24 8 13 1024.8 - 0.0
26/10:00am 14.8 11.2 10.0 73 2.5 WSW 19 37 10 20 1024.7 - 0.0
26/09:30am 14.6 9.3 9.8 73 2.5 SSW 28 33 15 18 1024.4 - 0.0
26/09:00am 13.8 7.3 10.2 79 1.9 S 35 43 19 23 1024.1 1024.0 2.4
26/08:30am 14.9 10.7 9.7 71 2.7 S 22 28 12 15 1024.1 - 2.4
26/08:00am 13.6 8.1 9.1 74 2.3 S 28 37 15 20 1023.9 - 2.4
26/07:30am 13.5 9.3 9.6 77 2.0 S 22 30 12 16 1023.3 - 2.4
26/07:00am 13.6 7.4 9.5 76 2.1 S 32 44 17 24 1022.8 - 2.2
26/06:30am 13.2 6.9 8.9 75 2.2 S 32 37 17 20 1022.5 - 2.2
26/06:00am 12.7 5.7 9.9 83 1.4 SSW 37 46 20 25 1022.4 1022.3 2.2
26/05:51am 13.0 7.7 10.0 82 1.5 S 28 46 15 25 1022.2 - 2.2
26/05:30am 12.6 6.6 10.1 85 1.3 S 32 41 17 22 1022.2 - 2.2
26/05:00am 12.5 6.8 9.7 83 1.4 S 30 41 16 22 1021.8 - 2.2
26/04:30am 13.1 6.8 9.0 76 2.1 SSW 32 37 17 20 1021.6 - 2.2
26/04:00am 13.1 6.9 9.4 78 1.9 S 32 37 17 20 1021.3 - 2.2
26/03:30am 12.6 8.5 10.1 85 1.3 S 22 28 12 15 1021.3 - 2.2
26/03:00am 12.8 7.1 9.8 82 1.5 S 30 37 16 20 1021.3 1021.2 2.0
26/02:30am 12.7 7.6 9.2 79 1.8 SW 26 30 14 16 1021.4 - 2.0
26/02:00am 12.9 6.6 9.0 77 2.0 SSW 32 39 17 21 1021.2 - 2.0
26/01:48am 13.3 7.9 9.4 77 2.0 S 28 35 15 19 1021.1 - 2.0
26/01:30am 12.8 10.4 10.2 84 1.3 S 13 17 7 9 1021.1 - 2.0
26/01:00am 13.2 8.8 9.1 76 2.1 SSW 22 30 12 16 1020.9 - 2.0
26/12:30am 13.1 7.8 8.6 74 2.2 S 26 32 14 17 1020.9 - 2.0
26/12:00am 13.9 7.3 7.7 66 3.0 S 32 39 17 21 1020.7 1020.6 2.0
 
Date/Time
CST
Tmp

°C
App
Tmp
°C
Dew
Point
°C
Rel
Hum
%
Delta-T

°C
Wind Press
QNH
hPa
Press
MSL
hPa
Rain
since
9 am
mm
Dir
 
Spd
km/h
Gust
km/h
Spd
kts
Gust
kts
25/11:30pm 14.1 8.0 6.7 61 3.6 S 28 33 15 18 1020.6 - 2.0
25/11:00pm 13.8 6.3 6.2 60 3.6 SSW 35 43 19 23 1020.6 - 2.0
25/10:30pm 14.3 7.8 8.0 66 3.1 SSW 32 39 17 21 1020.4 - 2.0
25/10:00pm 14.2 7.6 8.6 69 2.8 SSW 33 39 18 21 1020.3 - 2.0
25/09:30pm 14.2 8.2 8.8 70 2.7 SSW 30 37 16 20 1020.1 - 2.0
25/09:00pm 14.0 7.9 9.8 76 2.2 S 32 41 17 22 1019.8 1019.6 1.8
25/08:30pm 13.8 7.6 10.0 78 2.0 S 33 41 18 22 1019.5 - 1.8
25/08:00pm 13.8 7.1 9.8 77 2.1 S 35 41 19 22 1019.4 - 1.8
25/07:30pm 13.9 6.9 10.1 78 2.0 S 37 46 20 25 1019.0 - 1.8
25/07:00pm 13.1 5.1 10.3 83 1.4 SSW 43 54 23 29 1018.7 - 1.8
25/06:48pm 13.1 5.1 10.3 83 1.4 SSW 43 50 23 27 1018.5 - 1.8
25/06:30pm 13.1 6.0 11.0 87 1.1 S 39 50 21 27 1018.3 - 1.8
25/06:00pm 14.0 5.7 10.2 78 2.0 S 44 50 24 27 1017.4 1017.3 1.6
25/05:30pm 13.9 6.1 11.1 83 1.5 S 43 54 23 29 1017.0 - 1.6
25/05:00pm 14.6 5.9 10.0 74 2.4 S 46 56 25 30 1016.2 - 1.6
25/04:30pm 14.8 6.8 11.0 78 2.0 S 44 56 24 30 1016.0 - 1.6
25/04:00pm 14.9 6.5 10.9 77 2.1 S 46 59 25 32 1015.5 - 1.6
25/03:30pm 14.9 6.1 11.1 78 2.0 S 48 57 26 31 1015.1 - 1.6
25/03:00pm 15.0 6.4 11.8 81 1.7 S 48 57 26 31 1014.5 1014.3 1.6
25/02:30pm 14.2 5.5 12.4 89 1.0 S 50 59 27 32 1014.3 - 1.6
25/02:00pm 14.0 6.2 11.7 86 1.2 S 44 59 24 32 1013.5 - 1.4
25/01:36pm 14.0 8.7 11.3 84 1.4 S 30 50 16 27 1013.6 - 1.0
25/01:30pm 14.9 10.3 12.2 84 1.5 S 28 33 15 18 1013.8 - 0.6
25/01:00pm 16.2 12.4 13.7 85 1.4 SW 26 33 14 18 1013.8 - 0.4
25/12:30pm 14.7 10.1 12.2 85 1.4 SW 28 35 15 19 1013.8 - 0.4
25/12:00pm 13.9 7.3 11.4 85 1.3 SSW 37 44 20 24 1013.8 1013.7 0.4
25/11:34am 14.4 7.4 10.0 75 2.3 SW 37 56 20 30 1013.6 - 0.0
25/11:30am 15.0 8.1 8.7 66 3.2 SW 35 44 19 24 1013.6 - 0.0
25/11:00am 15.8 9.3 9.0 64 3.5 SW 33 43 18 23 1013.4 - 0.0
25/10:30am 15.8 12.1 10.3 70 2.9 SW 20 26 11 14 1013.3 - 0.0
25/10:00am 14.7 9.6 9.1 69 2.9 SSW 26 35 14 19 1013.1 - 0.0
25/09:30am 14.2 8.6 8.8 70 2.7 S 28 33 15 18 1012.6 - 0.0
25/09:00am 14.3 8.7 8.9 70 2.7 S 28 33 15 18 1012.4 1012.4 18.4
25/08:30am 14.5 9.0 9.1 70 2.8 S 28 33 15 18 1012.0 - 18.4
25/08:00am 13.6 7.7 9.1 74 2.3 S 30 37 16 20 1011.3 - 18.4
25/07:30am 13.1 6.7 8.4 73 2.3 S 32 37 17 20 1010.7 - 18.4
25/07:00am 12.7 6.2 8.2 74 2.2 SSE 32 37 17 20 1009.9 - 18.4
25/06:30am 12.4 6.4 8.5 77 1.9 SSE 30 37 16 20 1009.5 - 18.4
25/06:00am 11.9 5.5 8.4 79 1.7 SSE 32 39 17 21 1009.0 1008.8 18.4
25/05:30am 11.5 4.8 8.0 79 1.7 SSE 33 41 18 22 1008.5 - 18.4
25/05:00am 11.4 5.0 8.6 83 1.4 SSE 32 39 17 21 1007.8 - 18.4
25/04:30am 11.2 3.7 7.9 80 1.6 SSE 37 46 20 25 1006.9 - 18.4
25/04:00am 10.3 5.8 8.6 89 0.8 ESE 22 28 12 15 1006.3 - 18.4
25/03:30am 10.3 5.4 8.4 88 0.9 ESE 24 28 13 15 1005.5 - 18.2
25/03:00am 10.2 6.0 8.3 88 0.9 ESE 20 24 11 13 1004.7 1004.6 18.2
25/02:30am 9.9 7.0 8.2 89 0.8 SSE 13 17 7 9 1004.3 - 18.2
25/02:00am 9.4 6.8 7.7 89 0.8 ESE 11 15 6 8 1003.6 - 18.2
25/01:30am 9.4 6.0 7.5 88 0.9 ENE 15 22 8 12 1003.0 - 18.2
25/01:00am 9.7 5.1 8.0 89 0.8 NE 22 28 12 15 1002.6 - 17.8
25/12:30am 9.6 5.5 7.9 89 0.8 NE 19 26 10 14 1002.4 - 17.2
25/12:00am 9.2 5.3 7.3 88 0.9 NE 17 20 9 11 1002.5 1002.4 15.4
 
Date/Time
CST
Tmp

°C
App
Tmp
°C
Dew
Point
°C
Rel
Hum
%
Delta-T

°C
Wind Press
QNH
hPa
Press
MSL
hPa
Rain
since
9 am
mm
Dir
 
Spd
km/h
Gust
km/h
Spd
kts
Gust
kts
24/11:30pm 10.0 8.9 6.9 81 1.5 NW 2 13 1 7 1002.3 - 14.4
24/11:00pm 9.8 4.3 7.6 86 1.1 S 26 39 14 21 1002.5 - 13.2
24/10:30pm 9.6 3.7 7.5 87 1.0 NE 28 33 15 18 1002.1 - 8.0
24/10:00pm 9.7 5.0 7.6 87 1.0 NE 22 30 12 16 1002.7 - 7.8

Latest Capital City Observations: Canberra | Sydney | Melbourne | Brisbane | Adelaide | Perth | Hobart | Darwin

Other Formats:

Comma delimited format used in spreadsheet applications
http://www.bom.gov.au/fwo/IDS60901/IDS60901.94677.axf

JavaScript Object Notation format (JSON) in row-major order
http://www.bom.gov.au/fwo/IDS60901/IDS60901.94677.json